createdAt,value
2023-03-26T00:02:05.759Z,57.83
2023-03-26T00:04:34.841Z,57.93
2023-03-26T00:07:03.543Z,57.68
2023-03-26T00:09:31.701Z,57.59
2023-03-26T00:11:59.967Z,57.39
2023-03-26T00:14:29.521Z,57.24
2023-03-26T00:16:57.761Z,56.68
2023-03-26T00:19:25.945Z,56.84
2023-03-26T00:21:54.112Z,56.43
2023-03-26T00:24:29.658Z,56.20
2023-03-26T00:26:57.919Z,55.80
2023-03-26T00:29:28.236Z,55.27
2023-03-26T00:31:56.592Z,55.43
2023-03-26T00:34:26.594Z,55.16
2023-03-26T00:36:54.979Z,54.99
2023-03-26T00:39:25.803Z,55.06
2023-03-26T00:41:54.896Z,54.34
2023-03-26T00:44:23.607Z,54.17
2023-03-26T00:46:51.805Z,53.76
2023-03-26T00:49:20.154Z,53.88
2023-03-26T00:51:48.412Z,53.78
2023-03-26T00:54:16.710Z,53.91
2023-03-26T00:56:45.639Z,54.06
2023-03-26T00:59:13.890Z,54.06
2023-03-26T01:01:42.489Z,53.96
2023-03-26T01:04:24.525Z,54.08
2023-03-26T01:06:54.561Z,54.34
2023-03-26T01:09:25.227Z,54.39
2023-03-26T01:11:53.789Z,54.82
2023-03-26T01:14:23.921Z,55.00
2023-03-26T01:16:55.341Z,54.98
2023-03-26T01:19:42.629Z,54.96
2023-03-26T01:22:13.481Z,55.33
2023-03-26T01:24:43.259Z,55.19
2023-03-26T01:27:14.581Z,55.28
2023-03-26T01:29:47.195Z,55.34
2023-03-26T01:32:25.124Z,55.20
2023-03-26T01:35:14.491Z,55.26
2023-03-26T01:37:53.282Z,55.23
2023-03-26T01:40:24.622Z,55.18
2023-03-26T01:43:04.800Z,55.15
2023-03-26T01:45:35.541Z,55.05
2023-03-26T01:48:04.226Z,55.00
2023-03-26T01:50:32.639Z,55.19
2023-03-26T01:53:01.437Z,55.16
2023-03-26T01:55:35.686Z,55.20
2023-03-26T01:58:11.466Z,55.50
2023-03-26T02:00:43.354Z,55.89
2023-03-26T02:03:18.131Z,56.18
2023-03-26T02:05:58.124Z,56.09
2023-03-26T02:08:36.029Z,56.07
2023-03-26T02:11:11.450Z,56.45
2023-03-26T02:13:41.175Z,56.53
2023-03-26T02:16:12.608Z,56.72
2023-03-26T02:18:41.036Z,56.96
2023-03-26T02:21:12.470Z,57.49
2023-03-26T02:23:42.707Z,57.21
2023-03-26T02:26:11.685Z,57.37
2023-03-26T02:28:49.403Z,57.81
2023-03-26T02:31:19.542Z,58.10
2023-03-26T02:33:49.680Z,58.41
2023-03-26T02:36:20.945Z,59.18
2023-03-26T02:38:50.286Z,58.74
2023-03-26T02:41:18.516Z,59.22
2023-03-26T02:43:56.251Z,59.97
2023-03-26T02:46:27.188Z,59.78
2023-03-26T02:49:09.379Z,59.96
2023-03-26T02:51:37.785Z,60.57
2023-03-26T02:54:17.020Z,60.80
2023-03-26T02:56:52.792Z,60.57
2023-03-26T02:59:33.959Z,60.88
2023-03-26T03:02:23.022Z,61.43
2023-03-26T03:04:52.206Z,61.53
2023-03-26T03:07:22.929Z,61.32
2023-03-26T03:09:51.469Z,61.32
2023-03-26T03:12:45.608Z,61.34
2023-03-26T03:15:15.067Z,61.32
2023-03-26T03:17:43.713Z,61.28
2023-03-26T03:20:12.245Z,61.18
2023-03-26T03:22:41.524Z,60.94
2023-03-26T03:25:14.623Z,61.01
2023-03-26T03:27:43.542Z,60.97
2023-03-26T03:30:15.773Z,60.98
2023-03-26T03:32:47.265Z,60.99
2023-03-26T03:35:18.952Z,61.08
2023-03-26T03:37:50.701Z,60.95
2023-03-26T03:40:19.912Z,60.68
2023-03-26T03:42:48.437Z,60.58
2023-03-26T03:45:22.355Z,60.58
2023-03-26T03:48:15.322Z,60.42
2023-03-26T03:50:46.098Z,60.60
2023-03-26T03:53:26.480Z,60.67
2023-03-26T03:55:57.066Z,60.64
2023-03-26T03:58:31.236Z,60.74
2023-03-26T04:01:04.808Z,61.13
2023-03-26T04:03:59.318Z,61.23
2023-03-26T04:06:38.991Z,61.45
2023-03-26T04:09:10.172Z,61.30
2023-03-26T04:11:38.712Z,61.68
2023-03-26T04:14:29.974Z,61.41
2023-03-26T04:17:02.403Z,61.49
2023-03-26T04:19:31.594Z,62.14
2023-03-26T04:22:02.928Z,62.03
2023-03-26T04:24:38.532Z,61.95
2023-03-26T04:27:27.589Z,62.12
2023-03-26T04:30:01.558Z,62.25
2023-03-26T04:32:31.142Z,62.01
2023-03-26T04:35:00.477Z,62.20
2023-03-26T04:37:34.753Z,62.52
2023-03-26T04:40:15.543Z,62.64
2023-03-26T04:42:58.453Z,62.48
2023-03-26T04:45:48.297Z,63.33
2023-03-26T04:48:16.928Z,63.16
2023-03-26T04:50:45.666Z,63.22
2023-03-26T04:53:15.672Z,62.91
2023-03-26T04:55:58.503Z,62.65
2023-03-26T04:58:48.278Z,62.35
2023-03-26T05:01:17.720Z,62.31
2023-03-26T05:03:47.531Z,62.27
2023-03-26T05:06:17.993Z,62.07
2023-03-26T05:08:46.503Z,61.95
2023-03-26T05:11:21.893Z,61.64
2023-03-26T05:13:50.180Z,61.60
2023-03-26T05:16:18.719Z,61.65
2023-03-26T05:18:52.792Z,61.29
2023-03-26T05:21:22.581Z,61.48
2023-03-26T05:23:51.268Z,61.06
2023-03-26T05:26:21.030Z,61.19
2023-03-26T05:28:49.407Z,61.11
2023-03-26T05:31:28.244Z,61.24
2023-03-26T05:34:00.612Z,60.71
2023-03-26T05:36:29.018Z,60.50
2023-03-26T05:39:14.908Z,60.26
2023-03-26T05:42:01.304Z,60.22
2023-03-26T05:44:37.203Z,60.07
2023-03-26T05:47:08.677Z,60.02
2023-03-26T05:49:36.917Z,59.89
2023-03-26T05:52:05.291Z,59.57
2023-03-26T05:54:52.394Z,59.30
2023-03-26T05:57:39.599Z,59.15
2023-03-26T06:00:27.887Z,59.14
2023-03-26T06:02:57.528Z,58.96
2023-03-26T06:05:32.795Z,58.57
2023-03-26T06:08:16.583Z,57.88
2023-03-26T06:10:51.678Z,57.56
2023-03-26T06:13:19.865Z,57.02
2023-03-26T06:15:50.516Z,57.02
2023-03-26T06:18:29.780Z,55.62
2023-03-26T06:21:16.563Z,55.17
2023-03-26T06:23:52.085Z,54.56
2023-03-26T06:26:38.100Z,53.89
2023-03-26T06:29:38.714Z,52.50
2023-03-26T06:32:21.517Z,52.25
2023-03-26T06:34:56.328Z,52.51
2023-03-26T06:37:24.627Z,51.22
2023-03-26T06:39:58.174Z,51.20
2023-03-26T06:43:08.784Z,50.41
2023-03-26T06:45:51.270Z,50.42
2023-03-26T06:48:43.010Z,49.90
2023-03-26T06:51:41.551Z,49.26
2023-03-26T06:54:19.446Z,49.23
2023-03-26T06:56:56.658Z,48.93
2023-03-26T06:59:30.827Z,48.39
2023-03-26T07:02:17.992Z,48.68
2023-03-26T07:12:36.104Z,48.10
2023-03-26T07:15:30.563Z,48.12
2023-03-26T07:17:58.797Z,47.85
2023-03-26T07:20:32.691Z,47.90
2023-03-26T07:23:01.456Z,48.18
2023-03-26T07:26:31.548Z,47.47
2023-03-26T07:29:27.065Z,46.92
2023-03-26T07:32:28.736Z,47.03
2023-03-26T07:35:32.757Z,47.19
2023-03-26T07:38:41.971Z,46.80
2023-03-26T07:41:35.001Z,47.44
2023-03-26T07:44:12.061Z,47.04
2023-03-26T07:47:18.439Z,47.01
2023-03-26T07:50:06.591Z,46.96
2023-03-26T07:53:04.088Z,46.72
2023-03-26T07:56:13.148Z,47.13
2023-03-26T07:59:10.740Z,46.71
2023-03-26T08:02:02.289Z,46.62
2023-03-26T08:04:59.618Z,46.48
2023-03-26T08:08:09.201Z,45.88
2023-03-26T08:11:01.182Z,45.71
2023-03-26T08:13:39.523Z,44.94
2023-03-26T08:16:15.769Z,45.05
2023-03-26T08:19:01.551Z,44.45
2023-03-26T08:21:39.743Z,44.24
2023-03-26T08:24:18.485Z,44.20
2023-03-26T08:27:05.462Z,43.86
2023-03-26T08:29:39.502Z,43.35
2023-03-26T08:32:14.109Z,43.36
2023-03-26T08:34:42.348Z,43.21
2023-03-26T08:37:10.590Z,43.44
2023-03-26T08:39:40.095Z,42.85
2023-03-26T08:42:11.481Z,43.48
2023-03-26T08:45:02.208Z,43.30
2023-03-26T08:47:42.506Z,42.88
2023-03-26T08:50:11.900Z,42.36
2023-03-26T08:53:03.428Z,42.44
2023-03-26T08:55:55.164Z,42.09
2023-03-26T08:58:35.533Z,41.47
2023-03-26T09:01:22.304Z,41.61
2023-03-26T09:03:50.790Z,41.29
2023-03-26T09:06:28.329Z,40.83
2023-03-26T09:09:04.931Z,40.33
2023-03-26T09:11:34.652Z,39.20
2023-03-26T09:14:14.080Z,38.21
2023-03-26T09:17:02.466Z,37.51
2023-03-26T09:19:52.164Z,37.38
2023-03-26T09:22:29.721Z,37.80
2023-03-26T09:24:57.909Z,37.60
2023-03-26T09:27:38.493Z,37.74
2023-03-26T09:30:25.943Z,37.70
2023-03-26T09:32:55.747Z,37.13
2023-03-26T09:35:39.979Z,37.29
2023-03-26T09:38:34.479Z,36.93
2023-03-26T09:41:08.882Z,37.08
2023-03-26T09:43:49.612Z,37.53
2023-03-26T09:46:24.090Z,37.54
2023-03-26T09:49:12.544Z,37.50
2023-03-26T09:51:43.576Z,37.60
2023-03-26T09:54:18.333Z,37.78
2023-03-26T09:57:05.590Z,37.72
2023-03-26T09:59:45.983Z,37.61
2023-03-26T10:02:46.548Z,37.33
2023-03-26T10:05:28.086Z,37.38
2023-03-26T10:08:05.421Z,37.49
2023-03-26T10:10:39.595Z,37.46
2023-03-26T10:13:14.796Z,36.26
2023-03-26T10:16:00.151Z,36.05
2023-03-26T10:18:48.931Z,36.37
2023-03-26T10:21:36.129Z,36.85
2023-03-26T10:24:13.804Z,36.91
2023-03-26T10:27:09.873Z,36.28
2023-03-26T10:29:57.935Z,35.42
2023-03-26T10:32:32.751Z,35.91
2023-03-26T10:35:17.717Z,35.24
2023-03-26T10:38:04.935Z,34.56
2023-03-26T10:40:36.384Z,34.22
2023-03-26T10:43:24.388Z,33.58
2023-03-26T10:45:57.166Z,33.77
2023-03-26T10:48:28.153Z,33.59
2023-03-26T10:51:13.083Z,33.92
2023-03-26T10:53:50.662Z,34.03
2023-03-26T10:56:23.607Z,33.05
2023-03-26T10:58:52.243Z,33.31
2023-03-26T11:01:39.584Z,33.57
2023-03-26T11:04:34.313Z,32.69
2023-03-26T11:07:25.121Z,32.77
2023-03-26T11:10:02.559Z,33.29
2023-03-26T11:12:53.962Z,32.70
2023-03-26T11:15:25.360Z,32.38
2023-03-26T11:18:17.087Z,31.82
2023-03-26T11:20:48.468Z,32.29
2023-03-26T11:23:36.958Z,32.21
2023-03-26T11:26:08.181Z,32.03
2023-03-26T11:29:03.660Z,32.20
2023-03-26T11:31:45.663Z,31.98
2023-03-26T11:34:16.838Z,31.79
2023-03-26T11:36:48.300Z,31.78
2023-03-26T11:39:21.587Z,31.92
2023-03-26T11:41:52.814Z,32.45
2023-03-26T11:44:51.488Z,32.46
2023-03-26T11:47:23.411Z,32.46
2023-03-26T11:49:53.640Z,32.18
2023-03-26T11:52:22.483Z,32.54
2023-03-26T11:54:51.010Z,32.29
2023-03-26T11:57:26.488Z,31.63
2023-03-26T12:00:04.415Z,31.67
2023-03-26T12:02:41.885Z,31.62
2023-03-26T12:05:12.273Z,31.41
2023-03-26T12:07:49.575Z,31.37
2023-03-26T12:10:38.550Z,30.77
2023-03-26T12:13:21.857Z,31.30
2023-03-26T12:15:50.203Z,31.04
2023-03-26T12:18:28.607Z,31.38
2023-03-26T12:21:23.239Z,32.10
2023-03-26T12:24:02.475Z,32.22
2023-03-26T12:26:42.035Z,32.92
2023-03-26T12:29:11.935Z,33.07
2023-03-26T12:31:58.998Z,32.13
2023-03-26T12:34:35.300Z,31.68
2023-03-26T12:37:05.265Z,31.99
2023-03-26T12:40:10.556Z,31.76
2023-03-26T12:44:48.826Z,32.59
2023-03-26T12:45:14.902Z,32.65
2023-03-26T12:47:59.035Z,32.91
2023-03-26T12:50:57.447Z,33.21
2023-03-26T12:53:32.176Z,33.17
2023-03-26T12:56:19.975Z,33.75
2023-03-26T12:58:59.390Z,33.07
2023-03-26T13:01:44.959Z,32.53
2023-03-26T13:04:22.067Z,32.78
2023-03-26T13:07:00.830Z,32.65
2023-03-26T13:09:43.747Z,33.01
2023-03-26T13:12:24.428Z,33.03
2023-03-26T13:14:52.585Z,33.28
2023-03-26T13:17:30.068Z,33.05
2023-03-26T13:20:12.077Z,32.51
2023-03-26T13:22:59.382Z,32.52
2023-03-26T13:25:56.682Z,31.94
2023-03-26T13:28:25.111Z,31.85
2023-03-26T13:31:09.475Z,31.63
2023-03-26T13:33:37.721Z,32.11
2023-03-26T13:36:23.307Z,32.30
2023-03-26T13:38:59.751Z,31.98
2023-03-26T13:41:38.436Z,31.66
2023-03-26T13:44:25.182Z,31.85
2023-03-26T13:46:55.725Z,32.15
2023-03-26T13:49:23.938Z,31.87
2023-03-26T13:52:04.793Z,31.68
2023-03-26T13:54:37.073Z,31.87
2023-03-26T13:57:14.478Z,32.03
2023-03-26T13:59:45.524Z,31.87
2023-03-26T14:02:29.171Z,31.81
2023-03-26T14:05:01.435Z,32.21
2023-03-26T14:07:42.857Z,32.44
2023-03-26T14:10:19.686Z,32.76
2023-03-26T14:12:54.030Z,32.94
2023-03-26T14:15:33.293Z,32.93
2023-03-26T14:18:20.656Z,33.14
2023-03-26T14:21:09.958Z,32.88
2023-03-26T14:23:56.461Z,33.11
2023-03-26T14:26:43.752Z,33.26
2023-03-26T14:29:31.856Z,32.76
2023-03-26T14:32:00.015Z,32.58
2023-03-26T14:34:35.384Z,32.78
2023-03-26T14:37:18.986Z,32.30
2023-03-26T14:40:13.140Z,32.38
2023-03-26T14:42:43.425Z,32.48
2023-03-26T14:45:11.616Z,32.67
2023-03-26T14:47:52.834Z,32.89
2023-03-26T14:50:36.054Z,33.50
2023-03-26T14:53:12.773Z,33.83
2023-03-26T14:55:49.688Z,33.55
2023-03-26T14:58:36.520Z,33.38
2023-03-26T15:01:19.546Z,33.27
2023-03-26T15:04:06.432Z,33.46
2023-03-26T15:06:44.599Z,34.00
2023-03-26T15:09:31.482Z,35.04
2023-03-26T15:12:18.723Z,36.27
2023-03-26T15:15:06.529Z,37.17
2023-03-26T15:17:53.233Z,37.85
2023-03-26T15:20:44.630Z,37.74
2023-03-26T15:23:43.119Z,37.55
2023-03-26T15:26:24.367Z,37.61
2023-03-26T15:28:55.355Z,36.84
2023-03-26T15:31:23.622Z,35.72
2023-03-26T15:33:54.870Z,35.20
2023-03-26T15:37:10.918Z,34.71
2023-03-26T15:40:13.087Z,33.88
2023-03-26T15:42:47.581Z,34.68
2023-03-26T15:45:15.782Z,34.88
2023-03-26T15:47:47.052Z,35.28
2023-03-26T15:50:34.253Z,35.76
2023-03-26T15:53:23.749Z,36.39
2023-03-26T15:56:01.592Z,36.90
2023-03-26T15:58:52.312Z,37.50
2023-03-26T16:01:39.392Z,38.24
2023-03-26T16:04:09.358Z,38.74
2023-03-26T16:06:50.287Z,39.00
2023-03-26T16:09:27.794Z,39.47
2023-03-26T16:12:00.719Z,39.60
2023-03-26T16:14:48.450Z,39.97
2023-03-26T16:17:17.702Z,40.48
2023-03-26T16:19:58.589Z,40.24
2023-03-26T16:22:42.428Z,40.57
2023-03-26T16:25:28.754Z,40.91
2023-03-26T16:28:07.376Z,41.21
2023-03-26T16:30:35.686Z,41.51
2023-03-26T16:33:16.391Z,41.86
2023-03-26T16:36:02.451Z,42.30
2023-03-26T16:38:50.957Z,42.79
2023-03-26T16:41:22.160Z,43.52
2023-03-26T16:44:10.758Z,43.83
2023-03-26T16:47:00.873Z,44.41
2023-03-26T16:49:48.123Z,44.68
2023-03-26T16:52:42.934Z,45.19
2023-03-26T16:55:20.345Z,45.28
2023-03-26T16:57:58.207Z,45.79
2023-03-26T17:00:34.870Z,45.92
2023-03-26T17:03:22.272Z,46.07
2023-03-26T17:06:12.013Z,46.19
2023-03-26T17:08:42.333Z,46.38
2023-03-26T17:11:17.286Z,46.55
2023-03-26T17:14:03.869Z,46.66
2023-03-26T17:16:44.737Z,46.81
2023-03-26T17:19:13.755Z,46.98
2023-03-26T17:21:55.799Z,47.20
2023-03-26T17:24:27.915Z,47.41
2023-03-26T17:27:34.433Z,47.54
2023-03-26T17:30:07.896Z,47.60
2023-03-26T17:32:55.668Z,47.80
2023-03-26T17:35:36.323Z,48.58
2023-03-26T17:38:09.511Z,48.64
2023-03-26T17:40:49.123Z,48.44
2023-03-26T17:43:36.538Z,48.51
2023-03-26T17:46:13.357Z,48.19
2023-03-26T17:48:47.161Z,48.76
2023-03-26T17:51:40.539Z,48.87
2023-03-26T17:54:19.875Z,49.11
2023-03-26T17:56:49.006Z,49.58
2023-03-26T17:59:23.685Z,49.92
2023-03-26T18:01:55.595Z,49.53
2023-03-26T18:04:30.219Z,49.21
2023-03-26T18:07:13.702Z,49.64
2023-03-26T18:09:42.229Z,49.67
2023-03-26T18:12:17.143Z,49.82
2023-03-26T18:14:56.097Z,49.69
2023-03-26T18:17:26.083Z,50.43
2023-03-26T18:19:55.699Z,51.33
2023-03-26T18:22:25.773Z,51.19
2023-03-26T18:24:59.982Z,51.90
2023-03-26T18:27:39.383Z,52.21
2023-03-26T18:30:17.490Z,51.55
2023-03-26T18:32:52.805Z,51.67
2023-03-26T18:35:21.795Z,51.10
2023-03-26T18:37:52.081Z,52.17
2023-03-26T18:40:21.611Z,52.58
2023-03-26T18:42:49.813Z,52.96
2023-03-26T18:45:24.845Z,53.12
2023-03-26T18:47:54.858Z,52.91
2023-03-26T18:50:28.411Z,52.56
2023-03-26T18:52:58.645Z,52.33
2023-03-26T18:55:27.765Z,52.60
2023-03-26T18:57:56.628Z,52.85
2023-03-26T19:00:26.220Z,53.20
2023-03-26T19:03:04.999Z,52.48
2023-03-26T19:05:34.912Z,53.28
2023-03-26T19:08:05.755Z,52.62
2023-03-26T19:10:34.035Z,53.03
2023-03-26T19:13:02.589Z,53.26
2023-03-26T19:15:32.756Z,53.00
2023-03-26T19:18:14.211Z,53.52
2023-03-26T19:20:44.165Z,53.96
2023-03-26T19:23:17.362Z,55.06
2023-03-26T19:25:47.705Z,54.61
2023-03-26T19:28:18.883Z,54.55
2023-03-26T19:30:47.219Z,54.84
2023-03-26T19:33:20.537Z,54.74
2023-03-26T19:36:06.141Z,54.51
2023-03-26T19:38:39.004Z,54.38
2023-03-26T19:41:17.822Z,55.32
2023-03-26T19:43:50.952Z,55.32
2023-03-26T19:46:22.214Z,54.81
2023-03-26T19:48:52.884Z,54.77
2023-03-26T19:51:31.761Z,54.94
2023-03-26T19:54:01.232Z,55.53
2023-03-26T19:56:29.737Z,57.44
2023-03-26T19:58:59.569Z,58.58
2023-03-26T20:01:29.827Z,57.66
2023-03-26T20:04:01.492Z,57.26
2023-03-26T20:06:42.597Z,57.37
2023-03-26T20:09:13.026Z,57.08
2023-03-26T20:11:42.027Z,57.13
2023-03-26T20:14:20.264Z,57.27
2023-03-26T20:16:48.535Z,57.85
2023-03-26T20:19:16.882Z,57.54
2023-03-26T20:21:46.247Z,57.64
2023-03-26T20:24:16.201Z,57.53
2023-03-26T20:26:45.103Z,57.82
2023-03-26T20:29:14.177Z,58.03
2023-03-26T20:31:42.981Z,58.00
2023-03-26T20:34:15.225Z,58.76
2023-03-26T20:36:44.180Z,58.44
2023-03-26T20:39:12.798Z,59.25
2023-03-26T20:41:45.200Z,59.74
2023-03-26T20:44:15.883Z,58.83
2023-03-26T20:46:45.195Z,58.38
2023-03-26T20:49:15.223Z,58.57
2023-03-26T20:51:45.402Z,60.03
2023-03-26T20:54:23.984Z,59.30
2023-03-26T20:56:53.748Z,59.23
2023-03-26T20:59:27.151Z,59.28
2023-03-26T21:01:57.388Z,59.17
2023-03-26T21:04:26.587Z,59.33
2023-03-26T21:07:03.182Z,59.42
2023-03-26T21:09:35.729Z,59.48
2023-03-26T21:12:09.725Z,61.07
2023-03-26T21:14:41.764Z,60.32
2023-03-26T21:17:15.808Z,60.00
2023-03-26T21:19:44.828Z,59.77
2023-03-26T21:22:16.038Z,60.14
2023-03-26T21:25:01.391Z,60.62
2023-03-26T21:27:54.089Z,60.82
2023-03-26T21:30:22.426Z,60.90
2023-03-26T21:32:51.457Z,61.25
2023-03-26T21:35:20.153Z,61.10
2023-03-26T21:37:49.393Z,61.44
2023-03-26T21:40:18.083Z,62.20
2023-03-26T21:42:47.556Z,61.85
2023-03-26T21:45:16.025Z,61.79
2023-03-26T21:47:45.430Z,61.93
2023-03-26T21:50:15.831Z,61.67
2023-03-26T21:52:51.057Z,61.94
2023-03-26T21:55:21.206Z,62.13
2023-03-26T21:58:04.838Z,62.13
2023-03-26T22:00:43.623Z,61.63
2023-03-26T22:03:12.374Z,61.60
2023-03-26T22:05:43.744Z,61.92
2023-03-26T22:08:21.516Z,62.82
2023-03-26T22:10:49.751Z,62.45
2023-03-26T22:13:18.021Z,62.41
2023-03-26T22:15:46.744Z,62.82
2023-03-26T22:18:14.961Z,62.79
2023-03-26T22:20:47.212Z,62.53
2023-03-26T22:23:17.237Z,62.65
2023-03-26T22:25:46.549Z,62.24
2023-03-26T22:28:15.538Z,62.33
2023-03-26T22:30:43.802Z,62.64
2023-03-26T22:33:12.629Z,62.17
2023-03-26T22:35:44.795Z,63.11
2023-03-26T22:38:13.356Z,63.76
2023-03-26T22:40:41.566Z,62.95
2023-03-26T22:43:09.785Z,63.97
2023-03-26T22:45:38.040Z,63.90
2023-03-26T22:48:06.394Z,64.40
2023-03-26T22:50:35.171Z,63.81
2023-03-26T22:53:03.358Z,64.09
2023-03-26T22:55:31.523Z,65.40
2023-03-26T22:57:59.774Z,66.54
2023-03-26T23:00:28.034Z,66.07
2023-03-26T23:03:00.777Z,66.62
2023-03-26T23:05:29.531Z,66.10
2023-03-26T23:07:58.450Z,66.27
2023-03-26T23:10:26.749Z,66.22
2023-03-26T23:12:54.944Z,66.77
2023-03-26T23:15:26.074Z,66.08
2023-03-26T23:17:55.114Z,65.74
2023-03-26T23:20:23.614Z,65.08
2023-03-26T23:22:52.740Z,64.79
2023-03-26T23:25:21.179Z,64.79
2023-03-26T23:27:50.817Z,64.53
2023-03-26T23:30:19.536Z,64.41
2023-03-26T23:32:48.125Z,64.20
2023-03-26T23:35:16.407Z,64.25
2023-03-26T23:37:44.622Z,64.79
2023-03-26T23:40:14.071Z,64.68
2023-03-26T23:42:42.891Z,64.88
2023-03-26T23:45:12.492Z,64.30
2023-03-26T23:47:42.594Z,64.15
2023-03-26T23:50:11.389Z,64.63
2023-03-26T23:52:39.615Z,64.66
2023-03-26T23:55:08.254Z,65.27
2023-03-26T23:57:37.213Z,65.59
